Time;durP1;ratioP1;P1;durP2;ratioP2;P2;SDS_P1;SDS_P2;PMS_P1;PMS_P2;Temp;Humidity;BMP_temperature;BMP_pressure;BME280_temperature;BME280_humidity;BME280_pressure;Samples;Min_cycle;Max_cycle;Signal;HPM_P1;HPM_P2
2022/05/06 00:01:03;;;;;;;8.98;7.20;;;18.00;56.70;;;;;;4926098;29;20027;-78
2022/05/06 00:03:29;;;;;;;10.05;7.55;;;17.90;56.70;;;;;;4925923;29;20035;-77
2022/05/06 00:05:55;;;;;;;9.63;7.35;;;17.90;56.80;;;;;;4941742;29;20114;-78
2022/05/06 00:08:21;;;;;;;10.20;7.53;;;17.90;56.80;;;;;;4957252;29;20114;-80
2022/05/06 00:10:46;;;;;;;10.73;8.32;;;17.80;56.80;;;;;;4941178;29;20039;-79
2022/05/06 00:13:12;;;;;;;10.20;8.00;;;17.80;56.90;;;;;;4941310;29;20043;-80
2022/05/06 00:15:39;;;;;;;9.40;7.35;;;17.80;56.90;;;;;;4940917;29;20461;-78
2022/05/06 00:18:05;;;;;;;10.60;7.72;;;17.70;56.90;;;;;;4957695;29;20376;-78
2022/05/06 00:20:31;;;;;;;11.75;7.90;;;17.70;56.90;;;;;;4941456;29;20031;-84
2022/05/06 00:23:00;;;;;;;11.80;8.25;;;17.70;57.00;;;;;;4956860;29;20055;-81
2022/05/06 00:25:26;;;;;;;10.23;8.13;;;17.70;57.00;;;;;;4942195;29;20038;-81
2022/05/06 00:27:53;;;;;;;10.73;8.10;;;17.70;57.10;;;;;;4926068;29;20384;-78
2022/05/06 00:30:18;;;;;;;11.65;8.85;;;17.60;57.10;;;;;;4941287;29;20055;-78
2022/05/06 00:32:46;;;;;;;11.48;8.30;;;17.60;57.20;;;;;;4941964;29;20534;-79
2022/05/06 00:35:11;;;;;;;12.13;8.80;;;17.50;57.10;;;;;;4941116;29;20031;-79
2022/05/06 00:37:38;;;;;;;12.35;8.70;;;17.50;57.20;;;;;;4940823;29;20035;-82
2022/05/06 00:40:04;;;;;;;12.38;9.00;;;17.50;57.20;;;;;;4955744;28;20037;-79
2022/05/06 00:42:30;;;;;;;12.00;8.75;;;17.40;57.20;;;;;;4940803;29;20027;-80
2022/05/06 00:44:55;;;;;;;10.88;8.60;;;17.40;57.20;;;;;;4924879;29;20086;-81
2022/05/06 00:47:22;;;;;;;11.93;8.95;;;17.40;57.30;;;;;;4957150;29;20074;-77
2022/05/06 00:49:49;;;;;;;11.15;8.73;;;17.40;57.30;;;;;;4940421;29;20031;-78
2022/05/06 00:52:17;;;;;;;12.85;9.68;;;17.30;57.30;;;;;;4909174;29;20023;-79
2022/05/06 00:54:44;;;;;;;12.07;9.07;;;17.30;57.40;;;;;;4941099;29;20042;-78
2022/05/06 00:57:10;;;;;;;10.30;8.50;;;17.30;57.40;;;;;;4944647;29;20027;-79
2022/05/06 01:00:17;;;;;;;12.82;9.50;;;17.20;57.30;;;;;;4949869;29;20031;-78
2022/05/06 01:02:23;;;;;;;13.75;9.40;;;17.20;57.40;;;;;;4960433;29;20178;-78
2022/05/06 01:04:50;;;;;;;11.27;8.90;;;17.20;57.40;;;;;;4940505;29;20529;-79
2022/05/06 01:07:18;;;;;;;11.60;8.68;;;17.10;57.40;;;;;;4940957;29;20110;-80
2022/05/06 01:09:44;;;;;;;11.95;8.98;;;17.10;57.50;;;;;;4924934;29;20121;-80
2022/05/06 01:12:10;;;;;;;13.05;9.32;;;17.10;57.50;;;;;;4956942;29;20069;-80
2022/05/06 01:14:36;;;;;;;11.98;9.07;;;17.00;57.50;;;;;;4940963;29;20046;-79
2022/05/06 01:17:11;;;;;;;11.85;9.27;;;17.00;57.70;;;;;;4942486;29;20364;-79
2022/05/06 01:19:37;;;;;;;11.27;8.88;;;17.00;57.70;;;;;;4940454;29;20049;-79
2022/05/06 01:22:03;;;;;;;11.35;8.18;;;16.90;57.60;;;;;;4923904;29;20130;-80
2022/05/06 01:24:31;;;;;;;11.02;8.82;;;16.90;57.70;;;;;;4924471;29;20063;-80
2022/05/06 01:27:08;;;;;;;11.23;8.63;;;16.90;57.70;;;;;;4924815;29;20579;-80
2022/05/06 01:29:37;;;;;;;11.43;8.65;;;16.80;57.80;;;;;;4956084;29;20114;-79
2022/05/06 01:32:03;;;;;;;11.48;8.82;;;16.80;57.70;;;;;;4939683;29;20094;-81
2022/05/06 01:34:32;;;;;;;11.50;9.25;;;16.80;57.70;;;;;;4939761;29;20098;-80
2022/05/06 01:37:02;;;;;;;14.90;9.98;;;16.80;57.80;;;;;;4940123;29;20078;-79
2022/05/06 01:39:33;;;;;;;12.60;9.27;;;16.80;57.90;;;;;;4939903;29;20037;-80
2022/05/06 01:42:06;;;;;;;10.98;8.75;;;16.70;57.80;;;;;;4955735;29;20134;-80
2022/05/06 01:44:46;;;;;;;12.10;8.60;;;16.70;57.90;;;;;;4941828;29;20024;-80
2022/05/06 01:47:18;;;;;;;11.88;9.48;;;16.70;58.00;;;;;;4939661;29;20023;-80
2022/05/06 01:49:47;;;;;;;10.82;8.75;;;16.60;58.00;;;;;;4955611;28;20031;-79
2022/05/06 01:52:17;;;;;;;11.57;8.98;;;16.60;58.00;;;;;;4939367;29;20144;-83
2022/05/06 01:54:44;;;;;;;12.65;9.50;;;16.60;58.10;;;;;;4939474;29;20042;-79
2022/05/06 01:57:11;;;;;;;13.10;9.57;;;16.60;58.10;;;;;;4939268;29;20102;-79
2022/05/06 01:59:37;;;;;;;12.85;9.70;;;16.50;58.00;;;;;;4939321;29;20590;-78
2022/05/06 02:02:32;;;;;;;12.43;9.02;;;16.50;58.10;;;;;;4941925;29;20043;-79
2022/05/06 02:05:17;;;;;;;13.68;10.13;;;16.50;58.10;;;;;;4923392;29;20070;-78
2022/05/06 02:07:50;;;;;;;12.55;9.63;;;16.40;58.10;;;;;;4941489;29;20070;-80
2022/05/06 02:10:20;;;;;;;12.55;9.50;;;16.40;58.20;;;;;;4939412;29;20055;-79
2022/05/06 02:12:48;;;;;;;13.77;9.63;;;16.40;58.20;;;;;;4938615;29;20027;-79
2022/05/06 02:15:34;;;;;;;12.98;9.68;;;16.40;58.30;;;;;;4954982;29;20066;-81
2022/05/06 02:18:29;;;;;;;14.40;10.02;;;16.30;58.30;;;;;;4930991;29;20039;-78
2022/05/06 02:21:15;;;;;;;12.63;9.82;;;16.30;58.30;;;;;;4940505;29;20035;-82
2022/05/06 02:24:07;;;;;;;11.63;9.00;;;16.20;58.30;;;;;;4939129;29;20441;-79
2022/05/06 02:26:54;;;;;;;12.85;9.98;;;16.20;58.30;;;;;;4943743;29;20035;-82
2022/05/06 02:29:20;;;;;;;13.60;9.65;;;16.20;58.40;;;;;;4939389;29;20458;-78
2022/05/06 02:34:31;;;;;;;14.68;11.15;;;16.10;58.40;;;;;;4941621;29;20046;-79
2022/05/06 02:37:02;;;;;;;13.05;10.15;;;16.10;58.40;;;;;;4939502;29;20042;-79
2022/05/06 02:39:41;;;;;;;12.27;9.43;;;16.00;58.40;;;;;;4955385;29;20034;-78
2022/05/06 02:42:17;;;;;;;13.25;10.05;;;16.00;58.50;;;;;;4939902;29;20082;-78
2022/05/06 02:44:48;;;;;;;14.02;10.35;;;16.00;58.50;;;;;;4939334;29;20042;-78
2022/05/06 02:47:15;;;;;;;14.60;10.70;;;15.90;58.50;;;;;;4938389;29;20131;-80
2022/05/06 02:49:41;;;;;;;15.75;11.13;;;15.90;58.60;;;;;;4938376;29;20098;-77
2022/05/06 02:52:11;;;;;;;12.75;10.00;;;15.90;58.60;;;;;;4923266;29;20031;-79
2022/05/06 02:54:38;;;;;;;14.13;9.88;;;15.90;58.60;;;;;;4922732;29;20039;-78
2022/05/06 02:57:06;;;;;;;13.85;9.57;;;15.90;58.70;;;;;;4938343;29;20513;-79
2022/05/06 02:59:32;;;;;;;13.88;10.00;;;15.90;58.70;;;;;;4922307;29;20491;-81
2022/05/06 03:01:58;;;;;;;14.38;10.32;;;15.80;59.30;;;;;;4937908;29;20046;-80
2022/05/06 03:04:24;;;;;;;14.50;9.90;;;15.80;58.70;;;;;;4937718;29;20038;-80
2022/05/06 03:06:52;;;;;;;12.52;9.63;;;15.80;58.70;;;;;;4922061;29;20134;-80
2022/05/06 03:09:29;;;;;;;13.63;10.05;;;15.80;58.80;;;;;;4939710;29;20038;-79
2022/05/06 03:11:55;;;;;;;13.43;9.80;;;15.80;58.80;;;;;;4938055;29;20034;-79
2022/05/06 03:14:25;;;;;;;13.43;9.75;;;15.70;58.80;;;;;;4938429;29;20035;-78
2022/05/06 03:17:10;;;;;;;13.15;10.32;;;15.70;58.90;;;;;;4940867;29;20063;-82
2022/05/06 03:19:36;;;;;;;11.95;9.63;;;15.70;58.90;;;;;;4953786;29;20066;-78
2022/05/06 03:22:02;;;;;;;12.13;9.45;;;15.70;58.90;;;;;;4938033;29;20574;-78
2022/05/06 03:24:28;;;;;;;11.95;9.18;;;15.70;59.00;;;;;;4953792;29;20046;-78
2022/05/06 03:26:55;;;;;;;12.68;9.60;;;15.60;59.00;;;;;;4938645;29;20118;-78
2022/05/06 03:29:20;;;;;;;12.25;9.60;;;15.60;59.00;;;;;;4937876;29;20543;-78
2022/05/06 03:31:47;;;;;;;12.55;9.38;;;15.60;59.00;;;;;;4922373;29;20039;-79
2022/05/06 03:34:15;;;;;;;11.65;9.18;;;15.60;59.00;;;;;;4953591;29;20440;-78
2022/05/06 03:36:42;;;;;;;13.07;9.52;;;15.60;59.10;;;;;;4938409;29;20031;-78
2022/05/06 03:39:11;;;;;;;11.15;8.93;;;15.60;59.10;;;;;;4937717;29;20031;-80
2022/05/06 03:41:43;;;;;;;11.55;8.93;;;15.60;59.20;;;;;;4938680;29;20058;-78
2022/05/06 03:44:10;;;;;;;11.98;9.05;;;15.50;59.10;;;;;;4953735;29;20040;-78
2022/05/06 03:46:40;;;;;;;11.32;8.65;;;15.50;59.20;;;;;;4938149;29;20035;-80
2022/05/06 03:49:07;;;;;;;11.23;8.57;;;15.50;59.20;;;;;;4921579;29;20035;-81
2022/05/06 03:51:33;;;;;;;10.02;7.85;;;15.50;59.20;;;;;;4938290;29;20426;-79
2022/05/06 03:54:10;;;;;;;10.98;8.95;;;15.50;59.20;;;;;;4953879;29;20416;-78
2022/05/06 03:56:37;;;;;;;10.93;8.25;;;15.50;59.30;;;;;;4937616;29;20039;-79
2022/05/06 03:59:06;;;;;;;11.38;8.75;;;15.50;59.30;;;;;;4937835;29;20028;-81
2022/05/06 04:01:33;;;;;;;10.20;8.38;;;15.40;59.30;;;;;;4921720;29;20027;-79
2022/05/06 04:04:00;;;;;;;10.80;7.95;;;15.40;59.30;;;;;;4937113;29;20035;-82
2022/05/06 04:06:30;;;;;;;10.73;7.78;;;15.40;59.30;;;;;;4953284;29;20070;-78
2022/05/06 04:08:58;;;;;;;10.25;8.07;;;15.40;59.30;;;;;;4937595;29;20170;-80
2022/05/06 04:11:27;;;;;;;10.90;8.48;;;15.40;59.40;;;;;;4954202;29;20042;-79
2022/05/06 04:13:57;;;;;;;10.10;8.15;;;15.40;60.00;;;;;;4923569;29;20085;-79
2022/05/06 04:16:26;;;;;;;10.43;7.95;;;15.30;59.40;;;;;;4940846;29;20036;-78
2022/05/06 04:18:54;;;;;;;9.68;7.57;;;15.30;59.50;;;;;;4940966;29;20479;-79
2022/05/06 04:24:07;;;;;;;10.68;8.20;;;15.30;59.50;;;;;;4942978;29;20215;-79
2022/05/06 04:26:33;;;;;;;10.90;8.25;;;15.30;59.50;;;;;;4940653;29;20031;-81
2022/05/06 04:28:59;;;;;;;10.57;8.57;;;15.30;59.60;;;;;;4957127;29;20031;-79
2022/05/06 04:31:27;;;;;;;9.52;7.63;;;15.20;59.60;;;;;;4926173;29;20055;-80
2022/05/06 04:33:57;;;;;;;11.38;8.60;;;15.20;59.60;;;;;;4941365;29;20050;-81
2022/05/06 04:36:28;;;;;;;10.63;8.30;;;15.20;59.60;;;;;;4926478;29;20035;-78
2022/05/06 04:38:58;;;;;;;10.50;7.95;;;15.20;59.70;;;;;;4941445;29;20125;-80
2022/05/06 04:41:26;;;;;;;9.65;7.55;;;15.20;59.60;;;;;;4941119;29;20162;-80
2022/05/06 04:43:52;;;;;;;9.98;7.97;;;15.20;59.70;;;;;;4956968;29;20054;-81
2022/05/06 04:46:20;;;;;;;10.15;8.23;;;15.20;59.70;;;;;;4925333;29;20450;-80
2022/05/06 04:48:46;;;;;;;10.05;7.85;;;15.10;59.70;;;;;;4940601;29;20095;-78
2022/05/06 04:51:14;;;;;;;10.38;7.28;;;15.20;59.80;;;;;;4956150;29;20035;-85
2022/05/06 04:53:40;;;;;;;9.20;7.32;;;15.10;59.70;;;;;;4940005;29;20034;-80
2022/05/06 04:56:06;;;;;;;10.10;7.63;;;15.10;59.80;;;;;;4940851;29;20035;-80
2022/05/06 04:58:38;;;;;;;9.43;7.40;;;15.10;59.90;;;;;;4941123;29;20074;-81
2022/05/06 05:01:08;;;;;;;9.80;7.57;;;15.10;59.90;;;;;;4925725;29;20027;-78
2022/05/06 05:03:38;;;;;;;9.93;8.20;;;15.10;59.90;;;;;;4940502;29;20034;-80
2022/05/06 05:06:05;;;;;;;8.52;6.85;;;15.10;60.00;;;;;;4940212;29;20027;-82
2022/05/06 05:08:32;;;;;;;9.20;7.25;;;15.10;60.00;;;;;;4909158;29;20019;-81
2022/05/06 05:11:02;;;;;;;9.00;6.85;;;15.10;60.00;;;;;;4939924;29;20038;-81
2022/05/06 05:13:34;;;;;;;9.00;6.72;;;15.10;60.00;;;;;;4925825;29;20035;-82
2022/05/06 05:16:01;;;;;;;9.00;6.97;;;15.10;60.10;;;;;;4939820;29;20040;-83
2022/05/06 05:18:28;;;;;;;9.18;6.85;;;15.10;60.10;;;;;;4924607;29;20032;-81
2022/05/06 05:20:54;;;;;;;8.75;6.88;;;15.00;60.00;;;;;;4939356;29;20083;-82
2022/05/06 05:23:20;;;;;;;8.65;6.65;;;15.00;60.10;;;;;;4924116;29;20055;-80
2022/05/06 05:25:47;;;;;;;8.63;6.53;;;14.90;60.10;;;;;;4908970;29;20035;-83
2022/05/06 05:28:16;;;;;;;8.32;6.35;;;15.00;60.20;;;;;;4940228;29;20035;-80
2022/05/06 05:30:44;;;;;;;7.97;6.70;;;15.00;60.20;;;;;;4923834;29;20035;-81
2022/05/06 05:33:18;;;;;;;8.27;6.47;;;15.00;60.20;;;;;;4940804;29;20503;-80
2022/05/06 05:35:54;;;;;;;7.95;6.55;;;15.00;60.20;;;;;;4956154;29;20133;-81
2022/05/06 05:38:22;;;;;;;8.27;6.53;;;15.00;60.30;;;;;;4939750;29;20038;-81
2022/05/06 05:40:52;;;;;;;9.13;7.00;;;14.90;60.30;;;;;;4959049;29;20030;-80
2022/05/06 05:48:53;;;;;;;9.35;7.20;;;14.90;60.30;;;;;;4942052;29;20036;-80
2022/05/06 05:51:24;;;;;;;8.40;6.43;;;14.90;60.40;;;;;;4939526;29;20078;-81
2022/05/06 05:53:54;;;;;;;8.73;6.65;;;14.90;60.40;;;;;;4955005;29;20449;-81
2022/05/06 05:56:22;;;;;;;7.45;5.88;;;14.90;60.40;;;;;;4940226;29;20062;-82
2022/05/06 05:58:50;;;;;;;7.95;5.82;;;14.90;61.20;;;;;;4923976;29;20031;-81
2022/05/06 06:01:19;;;;;;;8.52;6.55;;;14.90;60.50;;;;;;4910175;29;20053;-82
2022/05/06 06:03:45;;;;;;;7.68;6.30;;;14.90;60.60;;;;;;4955626;29;20032;-81
2022/05/06 06:06:12;;;;;;;8.05;6.65;;;14.90;60.60;;;;;;4924307;29;20047;-81
2022/05/06 06:08:39;;;;;;;8.18;6.50;;;14.90;60.60;;;;;;4955926;29;20031;-81
2022/05/06 06:11:06;;;;;;;7.90;6.32;;;14.90;60.60;;;;;;4939695;29;20125;-81
2022/05/06 06:13:41;;;;;;;7.82;6.65;;;14.90;60.70;;;;;;4926034;29;20067;-81
2022/05/06 06:16:11;;;;;;;7.78;6.28;;;14.90;60.80;;;;;;4925175;29;20039;-80
2022/05/06 06:18:38;;;;;;;8.27;6.63;;;14.90;60.70;;;;;;4939136;29;20039;-81
2022/05/06 06:21:06;;;;;;;8.05;6.57;;;14.90;60.80;;;;;;4939348;29;20066;-81
2022/05/06 06:23:32;;;;;;;7.72;6.35;;;14.90;60.80;;;;;;4954550;29;20062;-81
2022/05/06 06:25:59;;;;;;;7.40;5.97;;;14.90;60.80;;;;;;4939138;29;20464;-82
2022/05/06 06:28:25;;;;;;;7.57;6.18;;;14.90;60.90;;;;;;4938833;29;20397;-80
2022/05/06 06:30:51;;;;;;;8.70;6.68;;;14.90;60.90;;;;;;4938156;29;20040;-80
2022/05/06 06:33:18;;;;;;;8.02;6.65;;;14.90;60.90;;;;;;4938419;29;20046;-81
2022/05/06 06:35:43;;;;;;;9.25;7.35;;;15.00;61.10;;;;;;4922708;29;20130;-79
2022/05/06 06:38:10;;;;;;;9.35;6.88;;;15.00;61.10;;;;;;4937980;29;20043;-81
2022/05/06 06:40:41;;;;;;;8.82;7.18;;;15.00;61.10;;;;;;4908647;29;20047;-81
2022/05/06 06:43:13;;;;;;;8.50;6.82;;;15.00;61.20;;;;;;4938799;29;20071;-80
2022/05/06 06:45:59;;;;;;;8.52;6.95;;;15.00;61.20;;;;;;4954997;29;20147;-79
2022/05/06 06:48:25;;;;;;;9.55;7.05;;;15.00;61.10;;;;;;4954101;29;20035;-79
2022/05/06 06:51:02;;;;;;;8.45;6.47;;;15.00;61.20;;;;;;4940656;29;20363;-79
2022/05/06 06:53:29;;;;;;;7.45;6.30;;;15.00;61.20;;;;;;4938055;29;20472;-79
2022/05/06 06:55:56;;;;;;;8.35;6.75;;;15.00;61.20;;;;;;4938278;29;20166;-80
2022/05/06 06:58:22;;;;;;;8.43;7.00;;;15.00;61.20;;;;;;4922793;29;20027;-80
2022/05/06 07:00:48;;;;;;;8.68;6.97;;;15.10;61.30;;;;;;4922961;29;20038;-81
2022/05/06 07:03:14;;;;;;;9.10;7.13;;;15.10;61.40;;;;;;4938581;29;20027;-81
2022/05/06 07:11:52;;;;;;;8.52;6.63;;;15.10;61.40;;;;;;4937942;29;20079;-80
2022/05/06 07:13:55;;;;;;;7.32;5.82;;;15.10;61.40;;;;;;4941080;29;20039;-82
2022/05/06 07:16:22;;;;;;;9.55;6.82;;;15.20;61.40;;;;;;4906668;29;20465;-80
2022/05/06 07:18:49;;;;;;;8.63;6.05;;;15.20;61.50;;;;;;4956196;28;20039;-80
2022/05/06 07:21:15;;;;;;;9.07;6.90;;;15.20;61.60;;;;;;4923802;29;20159;-84
2022/05/06 07:23:41;;;;;;;9.32;7.18;;;15.20;61.50;;;;;;4946841;29;20048;-80
2022/05/06 07:26:07;;;;;;;8.68;6.63;;;15.20;61.50;;;;;;4964922;28;20049;-81
2022/05/06 07:28:33;;;;;;;8.55;6.60;;;15.30;61.60;;;;;;4955161;29;20031;-82
2022/05/06 07:30:58;;;;;;;8.35;6.45;;;15.30;61.70;;;;;;4954523;29;20457;-81
2022/05/06 07:33:24;;;;;;;8.52;6.43;;;15.30;61.70;;;;;;4922500;29;20126;-81
2022/05/06 07:35:50;;;;;;;9.82;6.85;;;15.30;61.70;;;;;;4938183;29;20432;-81
2022/05/06 07:38:17;;;;;;;8.90;6.85;;;15.30;61.70;;;;;;4937927;29;20090;-82
2022/05/06 07:40:43;;;;;;;7.63;5.75;;;15.40;61.70;;;;;;4937801;29;20020;-80
2022/05/06 07:43:13;;;;;;;8.43;7.10;;;15.40;61.70;;;;;;4938521;29;20509;-84
2022/05/06 07:45:40;;;;;;;9.43;7.18;;;15.40;61.70;;;;;;4938185;29;20035;-84
2022/05/06 07:48:10;;;;;;;9.35;6.80;;;15.40;61.70;;;;;;4938970;29;20091;-81
2022/05/06 07:50:37;;;;;;;8.32;6.25;;;15.50;61.70;;;;;;4942040;29;20049;-81
2022/05/06 07:53:04;;;;;;;8.98;6.90;;;15.50;61.70;;;;;;4957459;29;20039;-82
2022/05/06 07:55:31;;;;;;;8.25;6.72;;;15.50;61.70;;;;;;4941793;29;20391;-81
2022/05/06 07:57:58;;;;;;;9.13;6.72;;;15.50;61.60;;;;;;4960178;29;20035;-81
2022/05/06 08:00:27;;;;;;;8.27;6.18;;;15.60;61.70;;;;;;4942221;29;20113;-80
2022/05/06 08:05:47;;;;;;;7.97;6.07;;;15.60;61.60;;;;;;4944772;29;20118;-81
2022/05/06 08:08:14;;;;;;;8.95;6.53;;;15.70;61.80;;;;;;4957395;29;20039;-86
2022/05/06 08:10:40;;;;;;;10.15;7.45;;;15.70;61.70;;;;;;4957635;29;20408;-79
2022/05/06 08:13:06;;;;;;;8.95;6.50;;;15.70;61.70;;;;;;4957147;29;20045;-80
2022/05/06 08:15:33;;;;;;;8.57;6.53;;;15.70;61.70;;;;;;4957553;29;20439;-79
2022/05/06 08:17:59;;;;;;;9.35;7.20;;;15.80;61.80;;;;;;4941237;29;20023;-81
2022/05/06 08:20:24;;;;;;;9.57;6.57;;;15.80;61.80;;;;;;4941161;29;20069;-81
2022/05/06 08:22:52;;;;;;;9.40;7.40;;;15.80;61.70;;;;;;4925394;29;20055;-82
2022/05/06 08:25:17;;;;;;;7.82;6.18;;;15.90;61.80;;;;;;4941458;29;20037;-81
2022/05/06 08:27:44;;;;;;;9.25;6.93;;;15.90;61.70;;;;;;4925226;29;20031;-80
2022/05/06 08:30:12;;;;;;;8.10;6.10;;;16.00;61.80;;;;;;4941934;29;20023;-80
2022/05/06 08:32:39;;;;;;;8.85;6.65;;;16.00;61.70;;;;;;4940644;29;20027;-80
2022/05/06 08:35:07;;;;;;;8.40;6.53;;;16.00;61.70;;;;;;4925379;29;20064;-80
2022/05/06 08:37:48;;;;;;;8.88;6.70;;;16.10;61.70;;;;;;4941023;29;20097;-80
2022/05/06 08:40:18;;;;;;;8.57;6.57;;;16.10;61.80;;;;;;4956589;29;20020;-79
2022/05/06 08:42:45;;;;;;;7.75;6.20;;;16.20;61.60;;;;;;4957074;29;20050;-81
2022/05/06 08:50:56;;;;;;;8.13;6.30;;;16.30;61.50;;;;;;4958032;29;20023;-80
2022/05/06 08:53:42;;;;;;;8.00;6.07;;;16.40;61.60;;;;;;4958077;28;20031;-81
2022/05/06 08:56:08;;;;;;;7.70;5.82;;;16.50;61.50;;;;;;4941310;29;20090;-81
2022/05/06 08:58:36;;;;;;;7.90;5.80;;;16.50;61.40;;;;;;4959478;29;20070;-80
2022/05/06 09:01:08;;;;;;;8.10;6.28;;;16.60;61.40;;;;;;4944700;29;20108;-80
2022/05/06 09:03:38;;;;;;;8.48;6.00;;;16.60;61.40;;;;;;4946034;29;20118;-79
2022/05/06 09:06:07;;;;;;;8.73;6.47;;;16.70;61.40;;;;;;4928587;29;20027;-80
2022/05/06 09:08:45;;;;;;;8.20;6.32;;;16.80;61.40;;;;;;4942693;29;20027;-80
2022/05/06 09:11:16;;;;;;;7.32;5.28;;;16.90;61.50;;;;;;4940631;29;20480;-80
2022/05/06 09:14:03;;;;;;;7.35;5.20;;;16.90;61.40;;;;;;4909149;29;20059;-80
2022/05/06 09:16:44;;;;;;;7.55;6.03;;;17.00;61.50;;;;;;4940238;29;20059;-80
2022/05/06 09:19:22;;;;;;;7.05;5.45;;;17.10;61.30;;;;;;4942665;29;20094;-80
2022/05/06 09:22:05;;;;;;;7.25;5.45;;;17.20;61.40;;;;;;4940212;29;20086;-79
2022/05/06 09:24:50;;;;;;;7.22;5.75;;;17.20;61.30;;;;;;4941194;29;20027;-80
2022/05/06 09:27:18;;;;;;;7.38;5.28;;;17.30;61.20;;;;;;4927029;29;20035;-79
2022/05/06 09:29:54;;;;;;;7.10;5.68;;;17.40;61.20;;;;;;4924358;29;20526;-80
2022/05/06 09:32:30;;;;;;;6.60;4.97;;;17.50;61.30;;;;;;4955780;29;20090;-79
2022/05/06 09:35:19;;;;;;;6.75;5.40;;;17.60;61.30;;;;;;4944151;29;20411;-80
2022/05/06 09:37:49;;;;;;;7.15;5.20;;;17.60;61.30;;;;;;4956031;29;20066;-79
2022/05/06 09:40:33;;;;;;;7.18;5.20;;;17.80;61.30;;;;;;4940046;29;20464;-80
2022/05/06 09:43:23;;;;;;;6.65;5.22;;;17.90;61.40;;;;;;4939012;29;20043;-79
2022/05/06 09:45:56;;;;;;;6.93;5.00;;;17.90;61.30;;;;;;4955853;29;20031;-80
2022/05/06 09:48:22;;;;;;;6.57;5.03;;;18.10;61.20;;;;;;4923323;29;20027;-79
2022/05/06 09:50:48;;;;;;;6.40;4.80;;;18.10;61.10;;;;;;4908155;29;20073;-79
2022/05/06 09:53:16;;;;;;;6.63;4.90;;;18.20;61.10;;;;;;4938949;29;20047;-80
2022/05/06 09:55:45;;;;;;;6.70;4.93;;;18.30;61.10;;;;;;4939148;29;20476;-79
2022/05/06 09:58:11;;;;;;;5.80;4.35;;;18.40;61.10;;;;;;4938497;29;20035;-80
2022/05/06 10:00:55;;;;;;;7.03;4.93;;;18.50;61.20;;;;;;4923187;29;20159;-80
2022/05/06 10:03:29;;;;;;;6.30;4.65;;;18.60;61.30;;;;;;4952891;29;20040;-80
2022/05/06 10:06:02;;;;;;;5.70;4.20;;;18.70;61.20;;;;;;4924599;29;20040;-80
2022/05/06 10:08:30;;;;;;;6.13;4.43;;;18.80;61.30;;;;;;4924854;29;20066;-80
2022/05/06 10:11:00;;;;;;;6.10;4.25;;;18.90;61.20;;;;;;4954766;28;20110;-80
2022/05/06 10:13:29;;;;;;;5.90;4.40;;;19.00;61.30;;;;;;4954306;29;20039;-83
2022/05/06 10:15:55;;;;;;;6.30;4.50;;;19.10;61.20;;;;;;4954990;29;20070;-80
2022/05/06 10:18:41;;;;;;;5.63;4.13;;;19.20;61.10;;;;;;4938830;29;20174;-81
2022/05/06 10:21:11;;;;;;;5.28;3.92;;;19.30;61.30;;;;;;4939028;29;20023;-79
2022/05/06 10:23:56;;;;;;;5.70;3.85;;;19.40;61.10;;;;;;4954538;29;20456;-79
2022/05/06 10:26:36;;;;;;;5.25;4.00;;;19.50;61.20;;;;;;4939034;29;20424;-82
2022/05/06 10:35:05;;;;;;;4.85;3.65;;;19.80;61.00;;;;;;4954359;29;20041;-81
2022/05/06 10:37:40;;;;;;;4.80;3.67;;;19.90;61.20;;;;;;4954392;29;20038;-79
2022/05/06 10:40:23;;;;;;;4.80;3.42;;;20.10;61.20;;;;;;4954192;29;20499;-80
2022/05/06 10:42:49;;;;;;;5.10;3.60;;;20.20;61.40;;;;;;4954184;29;20051;-81
2022/05/06 10:45:26;;;;;;;4.25;3.03;;;20.30;61.20;;;;;;4954789;29;20028;-80
2022/05/06 10:47:52;;;;;;;4.18;3.00;;;20.40;61.20;;;;;;4955361;28;20046;-80
2022/05/06 10:50:21;;;;;;;4.78;3.38;;;20.50;61.20;;;;;;4954159;29;20027;-78
2022/05/06 10:52:48;;;;;;;4.55;3.40;;;20.60;61.20;;;;;;4955216;28;20397;-81
2022/05/06 10:55:15;;;;;;;4.35;3.20;;;20.70;61.10;;;;;;4954628;29;20540;-79
2022/05/06 10:57:56;;;;;;;4.70;3.40;;;20.80;61.10;;;;;;4938337;29;20442;-80
2022/05/06 11:00:25;;;;;;;4.63;3.42;;;20.90;61.20;;;;;;4938457;29;20118;-80
2022/05/06 11:02:52;;;;;;;4.03;3.05;;;21.00;61.00;;;;;;4938262;29;20037;-78
2022/05/06 11:05:24;;;;;;;4.07;2.90;;;21.10;61.00;;;;;;4954384;29;20123;-82
2022/05/06 11:07:54;;;;;;;4.07;3.20;;;21.20;61.00;;;;;;4954021;29;20067;-80
2022/05/06 11:10:25;;;;;;;3.25;2.65;;;21.30;61.00;;;;;;4955545;28;20031;-79
2022/05/06 11:12:53;;;;;;;3.63;2.72;;;21.40;61.10;;;;;;4939517;29;20110;-78
2022/05/06 11:15:29;;;;;;;3.28;2.67;;;21.40;61.00;;;;;;4954205;29;20031;-79
2022/05/06 11:17:58;;;;;;;3.42;2.72;;;21.50;61.00;;;;;;4954125;29;20063;-78
2022/05/06 11:20:37;;;;;;;3.55;2.90;;;21.60;61.10;;;;;;4938338;29;20035;-78
2022/05/06 11:23:11;;;;;;;4.07;3.00;;;21.70;61.20;;;;;;4953484;29;20118;-85
2022/05/06 11:25:44;;;;;;;3.05;2.42;;;21.70;61.80;;;;;;4938407;29;20427;-78
2022/05/06 11:28:21;;;;;;;3.05;2.45;;;21.80;61.10;;;;;;4937601;29;20023;-77
2022/05/06 11:30:49;;;;;;;3.60;2.50;;;21.90;61.30;;;;;;4938408;29;20035;-82
2022/05/06 11:33:24;;;;;;;3.35;2.40;;;21.90;61.20;;;;;;4937890;29;20031;-80
2022/05/06 11:35:53;;;;;;;2.88;2.38;;;22.00;61.30;;;;;;4953897;29;20046;-80
2022/05/06 11:38:37;;;;;;;3.88;2.67;;;22.10;61.20;;;;;;4955307;28;20019;-80
2022/05/06 11:41:08;;;;;;;2.97;2.25;;;22.20;61.50;;;;;;4938088;29;20122;-80
2022/05/06 11:43:34;;;;;;;3.55;2.50;;;22.20;61.30;;;;;;4938120;29;20487;-80
2022/05/06 11:48:45;;;;;;;2.93;2.30;;;22.30;61.40;;;;;;4940456;29;20061;-77
2022/05/06 11:51:14;;;;;;;2.67;2.15;;;22.40;61.40;;;;;;4954322;29;20362;-81
2022/05/06 11:53:41;;;;;;;2.85;2.05;;;22.40;61.60;;;;;;4937466;29;20118;-81
2022/05/06 11:56:08;;;;;;;2.67;1.98;;;22.50;61.90;;;;;;4939031;29;20055;-85
2022/05/06 11:58:34;;;;;;;2.72;2.15;;;22.50;62.00;;;;;;4937829;29;20064;-83
2022/05/06 12:01:00;;;;;;;2.38;1.90;;;22.50;62.10;;;;;;4938482;29;20090;-79
2022/05/06 12:03:27;;;;;;;2.70;2.20;;;22.60;62.20;;;;;;4953623;29;20086;-80
2022/05/06 12:06:07;;;;;;;2.78;2.08;;;22.60;62.20;;;;;;4937472;29;20461;-79
2022/05/06 12:08:35;;;;;;;2.17;1.88;;;22.70;62.40;;;;;;4937357;29;20094;-76
2022/05/06 12:11:03;;;;;;;2.42;1.95;;;22.70;62.30;;;;;;4937847;29;20020;-82
2022/05/06 12:13:38;;;;;;;2.53;2.08;;;22.70;62.40;;;;;;4937359;29;20399;-78
2022/05/06 12:16:12;;;;;;;2.28;1.90;;;22.80;62.50;;;;;;4953234;29;20047;-77
2022/05/06 12:18:51;;;;;;;;;;;22.80;62.60;;;;;;4953943;29;20032;-81
2022/05/06 12:21:19;;;;;;;1.60;1.50;;;22.80;62.30;;;;;;4937397;29;20406;-79
2022/05/06 12:23:53;;;;;;;2.00;1.67;;;22.90;62.40;;;;;;4953840;29;20075;-82
2022/05/06 12:26:30;;;;;;;1.70;1.60;;;22.90;62.70;;;;;;4956529;29;20035;-79
2022/05/06 12:28:56;;;;;;;2.10;1.80;;;22.90;62.80;;;;;;4937983;29;20057;-77
2022/05/06 12:31:29;;;;;;;2.03;1.83;;;22.90;62.70;;;;;;4906516;29;20520;-78
2022/05/06 12:34:03;;;;;;;2.30;1.80;;;23.00;62.90;;;;;;4953036;28;20551;-78
2022/05/06 12:36:29;;;;;;;2.42;1.83;;;23.00;62.80;;;;;;4956292;29;20043;-79
2022/05/06 12:38:55;;;;;;;1.83;1.63;;;23.00;62.70;;;;;;4956890;29;20034;-78
2022/05/06 12:41:22;;;;;;;2.53;1.80;;;23.00;62.80;;;;;;4956888;29;20118;-80
2022/05/06 12:43:49;;;;;;;2.80;1.85;;;23.00;62.50;;;;;;4940625;29;20031;-79
2022/05/06 12:46:29;;;;;;;1.95;1.60;;;23.10;62.20;;;;;;4909218;29;20452;-78
2022/05/06 12:51:42;;;;;;;2.47;1.67;;;23.20;62.20;;;;;;4957705;29;20086;-80
2022/05/06 12:54:09;;;;;;;2.13;1.80;;;23.20;62.10;;;;;;4956304;29;20106;-78
2022/05/06 12:56:36;;;;;;;2.10;1.70;;;23.20;62.00;;;;;;4956835;29;20599;-79
2022/05/06 12:59:02;;;;;;;3.05;1.95;;;23.20;62.10;;;;;;4957177;29;20075;-81
2022/05/06 13:01:28;;;;;;;3.08;2.05;;;23.30;62.10;;;;;;4941047;29;20067;-80
2022/05/06 13:03:54;;;;;;;2.78;2.25;;;23.30;62.20;;;;;;4925164;29;20428;-81
2022/05/06 13:06:20;;;;;;;3.05;2.00;;;23.30;62.10;;;;;;4940465;29;20035;-80
2022/05/06 13:08:45;;;;;;;2.97;2.08;;;23.30;62.00;;;;;;4908919;29;20325;-80
2022/05/06 13:11:11;;;;;;;3.08;2.08;;;23.30;61.90;;;;;;4955979;29;20038;-77
2022/05/06 13:13:37;;;;;;;2.65;1.95;;;23.40;62.00;;;;;;4956667;29;20467;-79
2022/05/06 13:16:03;;;;;;;2.38;1.90;;;23.40;61.90;;;;;;4955935;29;20046;-81
2022/05/06 13:18:30;;;;;;;3.13;2.15;;;23.40;62.00;;;;;;4924219;29;20061;-78
2022/05/06 13:20:56;;;;;;;3.10;2.20;;;23.50;61.90;;;;;;4940204;29;20039;-79
2022/05/06 13:23:22;;;;;;;2.50;1.95;;;23.50;61.70;;;;;;4956895;29;20059;-79
2022/05/06 13:25:48;;;;;;;2.83;1.98;;;23.50;61.60;;;;;;4924259;29;20054;-78
2022/05/06 13:28:15;;;;;;;3.45;2.30;;;23.50;61.60;;;;;;4940258;29;20094;-79
2022/05/06 13:30:41;;;;;;;2.85;2.08;;;23.60;61.70;;;;;;4941455;29;20042;-80
2022/05/06 13:33:07;;;;;;;2.47;2.00;;;23.60;61.70;;;;;;4955322;29;20039;-82